Time;durP1;ratioP1;P1;durP2;ratioP2;P2;SDS_P1;SDS_P2;PMS_P1;PMS_P2;Temp;Humidity;BMP_temperature;BMP_pressure;BME280_temperature;BME280_humidity;BME280_pressure;Samples;Min_cycle;Max_cycle;Signal;HPM_P1;HPM_P2
2023/03/17 12:33:05;;;;;;;5.68;4.35;;;;;;;;;;4930624;23;20060;-82
2023/03/17 12:35:37;;;;;;;6.43;4.55;;;;;;;;;;4916946;29;20123;-82
2023/03/17 12:38:44;;;;;;;5.82;4.43;;;;;;;;;;4917225;29;20424;-83
2023/03/17 12:41:37;;;;;;;6.18;3.90;;;;;;;;;;4915912;29;20051;-82
2023/03/17 12:44:30;;;;;;;7.47;4.72;;;;;;;;;;4916753;29;20079;-82
2023/03/17 17:02:14;;;;;;;18.23;16.08;;;;;;;;;;4862607;27;20131;-83
2023/03/17 17:04:40;;;;;;;12.93;10.40;;;;;;;;;;4898524;29;20041;-83
2023/03/17 17:07:05;;;;;;;14.88;9.95;;;;;;;;;;4900936;29;20080;-82
2023/03/17 17:09:30;;;;;;;16.42;10.18;;;;;;;;;;4899697;29;20523;-82
2023/03/17 17:11:57;;;;;;;12.60;8.48;;;;;;;;;;4899642;29;20453;-84
2023/03/17 17:14:22;;;;;;;11.38;8.25;;;;;;;;;;4899673;29;20131;-85
2023/03/17 17:16:48;;;;;;;12.15;9.50;;;;;;;;;;4900567;29;20444;-84
2023/03/17 17:19:15;;;;;;;12.40;9.40;;;;;;;;;;4899963;29;20017;-82
2023/03/17 17:21:41;;;;;;;13.82;9.18;;;;;;;;;;4900950;29;20112;-84
2023/03/17 17:24:11;;;;;;;14.35;9.77;;;;;;;;;;4900502;29;20503;-83
2023/03/17 17:26:36;;;;;;;;;;;;;;;;;;4899538;29;20032;-84
2023/03/17 17:29:02;;;;;;;13.82;9.65;;;;;;;;;;4900981;29;19967;-88
2023/03/17 17:31:28;;;;;;;14.50;9.02;;;;;;;;;;4899795;29;20472;-84
2023/03/17 17:33:54;;;;;;;13.45;9.52;;;;;;;;;;4900948;29;20032;-83
2023/03/17 17:36:19;;;;;;;13.77;9.38;;;;;;;;;;4900714;29;20035;-84
2023/03/17 17:38:44;;;;;;;13.68;8.93;;;;;;;;;;4900596;29;20036;-83
2023/03/17 17:41:20;;;;;;;12.77;9.02;;;;;;;;;;4901036;29;20024;-84
2023/03/17 17:43:46;;;;;;;14.18;9.70;;;;;;;;;;4899081;29;20092;-85
2023/03/17 17:46:16;;;;;;;15.23;10.25;;;;;;;;;;4900493;29;20031;-82
2023/03/17 17:48:42;;;;;;;15.93;11.00;;;;;;;;;;4900581;29;20072;-83
2023/03/17 17:51:08;;;;;;;15.55;9.48;;;;;;;;;;4900367;29;20108;-83
2023/03/17 17:53:33;;;;;;;15.05;9.88;;;;;;;;;;4900481;29;20068;-83
2023/03/17 17:55:59;;;;;;;16.58;10.10;;;;;;;;;;4900529;29;20033;-83
2023/03/17 17:58:25;;;;;;;15.65;9.77;;;;;;;;;;4900550;29;20033;-83
2023/03/17 18:00:54;;;;;;;14.82;9.50;;;;;;;;;;4899056;29;20033;-83
2023/03/17 18:03:23;;;;;;;15.90;10.00;;;;;;;;;;4912918;29;20099;-85
2023/03/17 18:05:49;;;;;;;13.52;8.98;;;;;;;;;;4902593;29;20028;-85
2023/03/17 18:08:15;;;;;;;16.05;9.57;;;;;;;;;;4901973;29;20471;-84
2023/03/17 18:10:41;;;;;;;16.83;10.10;;;;;;;;;;4919170;29;20035;-84
2023/03/17 18:13:06;;;;;;;13.68;9.60;;;;;;;;;;4919158;29;20060;-84
2023/03/17 18:15:32;;;;;;;11.55;8.68;;;;;;;;;;4918845;29;20056;-83
2023/03/17 18:17:57;;;;;;;16.15;10.05;;;;;;;;;;4918800;29;20039;-84
2023/03/17 18:20:24;;;;;;;26.23;22.77;;;;;;;;;;4919028;29;20020;-83
2023/03/17 18:22:50;;;;;;;24.38;18.45;;;;;;;;;;4918488;29;20068;-84
2023/03/17 18:25:16;;;;;;;18.75;11.73;;;;;;;;;;4918769;29;20416;-82
2023/03/17 18:27:42;;;;;;;14.55;9.05;;;;;;;;;;4918731;29;20106;-83
2023/03/17 18:30:17;;;;;;;14.65;9.73;;;;;;;;;;4918441;29;20063;-84
2023/03/17 18:32:44;;;;;;;14.40;9.55;;;;;;;;;;4918433;29;20024;-84
2023/03/17 18:35:13;;;;;;;10.73;7.80;;;;;;;;;;4918405;29;20479;-85
2023/03/17 18:37:39;;;;;;;14.63;8.88;;;;;;;;;;4918675;29;20039;-83
2023/03/17 18:40:05;;;;;;;13.55;8.20;;;;;;;;;;4918561;29;20036;-82
2023/03/17 21:09:20;;;;;;;11.95;8.38;;;;;;;;;;5179860;23;20417;-82
2023/03/17 21:11:48;;;;;;;11.57;8.18;;;;;;;;;;4899923;29;20112;-83
2023/03/17 21:14:13;;;;;;;11.98;8.15;;;;;;;;;;4891317;29;20431;-82
2023/03/17 21:16:41;;;;;;;11.90;7.93;;;;;;;;;;4885460;29;20024;-83
2023/03/17 21:19:09;;;;;;;12.18;8.50;;;;;;;;;;4900525;29;20052;-82
2023/03/17 21:21:35;;;;;;;11.35;8.35;;;;;;;;;;4892548;29;20033;-83
2023/03/17 21:24:00;;;;;;;12.63;8.68;;;;;;;;;;4894642;29;20164;-82
2023/03/17 21:26:26;;;;;;;11.88;7.50;;;;;;;;;;4900880;29;20029;-83
2023/03/17 21:28:54;;;;;;;12.82;9.00;;;;;;;;;;4900793;29;20044;-83
2023/03/17 21:31:19;;;;;;;11.32;8.13;;;;;;;;;;4900774;29;20036;-82
2023/03/17 21:33:49;;;;;;;10.88;8.60;;;;;;;;;;4900348;29;20036;-82
2023/03/17 21:36:15;;;;;;;11.05;8.40;;;;;;;;;;4899276;29;20032;-83
2023/03/17 21:38:40;;;;;;;14.90;8.63;;;;;;;;;;4900614;29;20028;-82
2023/03/17 21:41:32;;;;;;;12.02;8.27;;;;;;;;;;4900821;29;20051;-82
2023/03/17 21:43:58;;;;;;;14.57;9.70;;;;;;;;;;4900611;29;20033;-83
2023/03/17 21:46:24;;;;;;;14.00;9.32;;;;;;;;;;4897680;29;20075;-82
2023/03/17 21:48:50;;;;;;;15.40;9.20;;;;;;;;;;4881797;29;20496;-83
2023/03/17 21:51:15;;;;;;;13.43;8.52;;;;;;;;;;4881939;29;20032;-81
2023/03/17 21:53:41;;;;;;;13.38;9.30;;;;;;;;;;4881667;29;20033;-82
2023/03/17 21:56:07;;;;;;;12.25;8.98;;;;;;;;;;4881585;29;20056;-82
2023/03/17 21:58:33;;;;;;;12.93;8.60;;;;;;;;;;4896983;29;20539;-83
2023/03/17 22:01:00;;;;;;;12.18;8.07;;;;;;;;;;4900061;29;20044;-82
2023/03/17 22:03:25;;;;;;;12.18;8.45;;;;;;;;;;4900172;29;20064;-82
2023/03/17 22:05:51;;;;;;;12.57;8.30;;;;;;;;;;4900469;29;20059;-83
2023/03/17 22:08:17;;;;;;;12.70;8.52;;;;;;;;;;4900305;29;20039;-83
2023/03/17 22:10:43;;;;;;;12.68;8.95;;;;;;;;;;4912886;29;20400;-83
2023/03/17 22:13:09;;;;;;;11.63;8.38;;;;;;;;;;4902161;29;20051;-82
2023/03/17 22:15:34;;;;;;;14.48;8.05;;;;;;;;;;4919264;29;20344;-83
2023/03/17 22:18:00;;;;;;;13.57;9.10;;;;;;;;;;4918786;29;20043;-83
2023/03/17 22:20:26;;;;;;;14.00;9.55;;;;;;;;;;4919194;29;20024;-83
2023/03/17 22:22:51;;;;;;;12.68;8.65;;;;;;;;;;4918762;29;20032;-82
2023/03/17 22:25:17;;;;;;;15.23;8.10;;;;;;;;;;4901820;29;20036;-83
2023/03/17 22:27:42;;;;;;;14.50;8.43;;;;;;;;;;4918843;29;20084;-82
2023/03/17 22:30:09;;;;;;;12.02;9.25;;;;;;;;;;4918170;29;20052;-83
2023/03/17 22:32:35;;;;;;;11.88;8.52;;;;;;;;;;4918285;29;20024;-82
2023/03/17 22:35:01;;;;;;;16.73;8.88;;;;;;;;;;4919059;29;20038;-83
2023/03/17 22:37:27;;;;;;;14.13;9.35;;;;;;;;;;4901505;29;20032;-82
2023/03/17 22:39:52;;;;;;;13.55;8.73;;;;;;;;;;4918632;29;20072;-82
2023/03/17 22:42:18;;;;;;;16.35;10.15;;;;;;;;;;4918749;29;20472;-83
2023/03/17 22:44:43;;;;;;;16.27;10.38;;;;;;;;;;4918616;29;20039;-82
2023/03/17 22:47:09;;;;;;;12.68;9.15;;;;;;;;;;4901587;29;20111;-82
2023/03/17 22:49:35;;;;;;;18.55;9.80;;;;;;;;;;4918396;29;20096;-83
2023/03/17 22:52:00;;;;;;;13.85;9.48;;;;;;;;;;4918458;29;20580;-83
